createdAt,value
2023-05-16T00:00:53.061Z,4.32
2023-05-16T00:03:23.069Z,3.47
2023-05-16T00:05:53.934Z,3.78
2023-05-16T00:08:24.040Z,3.33
2023-05-16T00:10:50.647Z,3.70
2023-05-16T00:13:17.290Z,3.17
2023-05-16T00:15:44.064Z,3.35
2023-05-16T00:18:10.667Z,2.95
2023-05-16T00:20:37.334Z,3.50
2023-05-16T00:23:03.908Z,3.13
2023-05-16T00:25:30.656Z,3.28
2023-05-16T00:27:57.303Z,3.10
2023-05-16T00:30:24.068Z,3.30
2023-05-16T00:32:50.869Z,2.95
2023-05-16T00:35:17.443Z,2.50
2023-05-16T00:37:44.117Z,3.08
2023-05-16T00:40:11.977Z,2.90
2023-05-16T00:42:39.516Z,2.80
2023-05-16T00:45:06.927Z,2.60
2023-05-16T00:47:33.616Z,2.45
2023-05-16T00:50:00.357Z,2.58
2023-05-16T00:52:26.974Z,3.03
2023-05-16T00:54:53.600Z,2.90
2023-05-16T00:57:20.243Z,2.92
2023-05-16T00:59:50.485Z,3.15
2023-05-16T01:02:19.744Z,2.80
2023-05-16T01:04:46.628Z,2.83
2023-05-16T01:07:13.224Z,2.72
2023-05-16T01:09:40.174Z,2.38
2023-05-16T01:12:25.546Z,2.90
2023-05-16T01:15:13.248Z,2.75
2023-05-16T01:17:41.525Z,2.70
2023-05-16T01:20:20.368Z,2.50
2023-05-16T01:22:46.921Z,2.97
2023-05-16T01:25:39.561Z,2.92
2023-05-16T01:28:06.532Z,2.47
2023-05-16T01:30:34.653Z,2.63
2023-05-16T01:33:01.317Z,2.45
2023-05-16T01:35:28.496Z,2.90
2023-05-16T01:38:04.259Z,2.50
2023-05-16T01:40:40.772Z,2.42
2023-05-16T01:43:13.270Z,2.80
2023-05-16T01:45:53.602Z,2.70
2023-05-16T01:48:23.888Z,3.20
2023-05-16T01:50:55.201Z,2.47
2023-05-16T01:53:34.370Z,3.15
2023-05-16T01:56:01.673Z,3.50
2023-05-16T01:58:30.825Z,3.20
2023-05-16T02:01:00.626Z,3.28
2023-05-16T02:03:27.327Z,3.20
2023-05-16T02:05:53.902Z,3.05
2023-05-16T02:08:23.020Z,3.17
2023-05-16T02:10:52.856Z,3.17
2023-05-16T02:13:19.383Z,3.00
2023-05-16T02:15:46.069Z,3.95
2023-05-16T02:18:12.635Z,3.22
2023-05-16T02:20:39.177Z,3.30
2023-05-16T02:23:05.735Z,2.83
2023-05-16T02:25:32.281Z,3.70
2023-05-16T02:28:01.907Z,3.05
2023-05-16T02:30:40.089Z,3.92
2023-05-16T02:33:06.676Z,3.30
2023-05-16T02:35:34.430Z,3.17
2023-05-16T02:38:00.977Z,3.17
2023-05-16T02:40:27.539Z,2.83
2023-05-16T02:42:54.088Z,2.90
2023-05-16T02:45:20.603Z,2.65
2023-05-16T02:47:50.352Z,2.60
2023-05-16T02:50:16.907Z,2.60
2023-05-16T02:52:43.495Z,2.60
2023-05-16T02:55:21.581Z,2.40
2023-05-16T02:58:01.486Z,1.92
2023-05-16T03:00:29.715Z,2.10
2023-05-16T03:02:56.571Z,1.95
2023-05-16T03:05:26.835Z,1.42
2023-05-16T03:07:54.208Z,1.63
2023-05-16T03:10:20.761Z,2.45
2023-05-16T03:12:47.320Z,2.00
2023-05-16T03:15:17.300Z,1.83
2023-05-16T03:17:44.853Z,1.88
2023-05-16T03:20:11.744Z,1.52
2023-05-16T03:22:39.644Z,1.80
2023-05-16T03:25:06.361Z,1.85
2023-05-16T03:27:32.896Z,1.83
2023-05-16T03:29:59.465Z,1.40
2023-05-16T03:32:28.919Z,1.70
2023-05-16T03:34:55.703Z,1.60
2023-05-16T03:37:22.222Z,1.67
2023-05-16T03:39:48.753Z,2.13
2023-05-16T03:42:19.118Z,1.80
2023-05-16T03:44:45.855Z,2.00
2023-05-16T03:47:12.374Z,1.60
2023-05-16T03:49:38.941Z,1.42
2023-05-16T03:52:05.557Z,1.50
2023-05-16T03:54:32.346Z,1.60
2023-05-16T03:56:58.896Z,1.30
2023-05-16T03:59:25.432Z,1.50
2023-05-16T04:01:52.044Z,1.98
2023-05-16T04:04:18.631Z,1.80
2023-05-16T04:06:45.184Z,1.58
2023-05-16T04:09:11.715Z,1.20
2023-05-16T04:11:38.225Z,1.77
2023-05-16T04:14:07.905Z,1.50
2023-05-16T04:16:34.662Z,1.77
2023-05-16T04:19:01.243Z,1.75
2023-05-16T04:21:27.847Z,1.65
2023-05-16T04:23:54.388Z,1.50
2023-05-16T04:26:20.946Z,1.45
2023-05-16T04:28:47.661Z,1.63
2023-05-16T04:31:14.300Z,1.30
2023-05-16T04:33:40.937Z,1.75
2023-05-16T04:36:07.570Z,1.55
2023-05-16T04:38:34.834Z,1.92
2023-05-16T04:41:01.703Z,1.63
2023-05-16T04:43:28.216Z,1.60
2023-05-16T04:45:54.795Z,1.90
2023-05-16T04:48:24.460Z,1.80
2023-05-16T04:50:52.092Z,1.90
2023-05-16T04:53:18.698Z,1.73
2023-05-16T04:55:45.235Z,2.00
2023-05-16T04:58:14.966Z,1.90
2023-05-16T05:00:41.793Z,2.20
2023-05-16T05:03:13.897Z,1.60
2023-05-16T05:05:40.516Z,1.95
2023-05-16T05:08:07.083Z,1.90
2023-05-16T05:10:36.179Z,1.88
2023-05-16T05:13:02.852Z,1.90
2023-05-16T05:15:31.308Z,1.77
2023-05-16T05:17:57.934Z,2.03
2023-05-16T05:20:24.623Z,1.88
2023-05-16T05:22:51.211Z,1.90
2023-05-16T05:25:19.388Z,2.33
2023-05-16T05:27:49.077Z,2.28
2023-05-16T05:30:16.589Z,1.60
2023-05-16T05:32:43.399Z,1.90
2023-05-16T05:35:10.032Z,2.20
2023-05-16T05:37:48.214Z,1.92
2023-05-16T05:40:19.229Z,2.45
2023-05-16T05:42:47.260Z,2.55
2023-05-16T05:45:14.830Z,2.30
2023-05-16T05:47:41.819Z,2.17
2023-05-16T05:50:08.881Z,1.88
2023-05-16T05:52:38.928Z,1.90
2023-05-16T05:55:07.346Z,2.10
2023-05-16T05:57:33.956Z,2.20
2023-05-16T06:00:00.796Z,2.30
2023-05-16T06:02:27.483Z,2.28
2023-05-16T06:04:54.111Z,2.22
2023-05-16T06:07:20.822Z,2.10
2023-05-16T06:09:49.378Z,2.42
2023-05-16T06:12:16.095Z,2.30
2023-05-16T06:14:42.609Z,2.10
2023-05-16T06:17:17.513Z,2.50
2023-05-16T06:19:44.146Z,2.40
2023-05-16T06:22:10.797Z,2.22
2023-05-16T06:24:38.989Z,2.00
2023-05-16T06:27:05.740Z,2.40
2023-05-16T06:29:32.301Z,2.20
2023-05-16T06:31:58.951Z,2.60
2023-05-16T06:34:25.557Z,2.10
2023-05-16T06:37:03.842Z,2.30
2023-05-16T06:39:41.902Z,2.15
2023-05-16T06:42:09.471Z,2.40
2023-05-16T06:44:36.132Z,2.30
2023-05-16T06:47:03.263Z,2.10
2023-05-16T06:49:32.988Z,2.33
2023-05-16T06:51:59.673Z,1.92
2023-05-16T06:54:28.564Z,2.10
2023-05-16T06:56:56.702Z,2.50
2023-05-16T06:59:23.336Z,2.00
2023-05-16T07:01:50.126Z,2.05
2023-05-16T07:04:20.989Z,2.50
2023-05-16T07:06:48.071Z,2.33
2023-05-16T07:09:14.699Z,2.83
2023-05-16T07:11:41.347Z,2.25
2023-05-16T07:14:08.018Z,2.67
2023-05-16T07:16:34.977Z,2.00
2023-05-16T07:19:01.779Z,2.20
2023-05-16T07:21:28.818Z,2.13
2023-05-16T07:23:55.369Z,2.13
2023-05-16T07:26:25.989Z,2.10
2023-05-16T07:28:55.002Z,2.03
2023-05-16T07:31:21.629Z,2.00
2023-05-16T07:33:56.159Z,2.28
2023-05-16T07:36:24.624Z,2.28
2023-05-16T07:38:54.090Z,2.15
2023-05-16T07:41:20.971Z,2.20
2023-05-16T07:43:47.605Z,1.95
2023-05-16T07:46:14.251Z,2.55
2023-05-16T07:48:45.463Z,2.20
2023-05-16T07:51:12.041Z,2.27
2023-05-16T07:53:38.641Z,2.20
2023-05-16T07:58:32.118Z,2.35
2023-05-16T08:00:59.204Z,2.17
2023-05-16T08:03:31.833Z,2.40
2023-05-16T08:05:59.935Z,2.10
2023-05-16T08:08:26.643Z,2.42
2023-05-16T08:10:58.388Z,2.45
2023-05-16T08:13:24.956Z,2.40
2023-05-16T08:15:51.758Z,2.13
2023-05-16T08:18:20.683Z,2.00
2023-05-16T08:20:48.794Z,2.45
2023-05-16T08:23:15.375Z,2.30
2023-05-16T08:25:41.984Z,2.20
2023-05-16T08:28:12.108Z,2.47
2023-05-16T08:30:48.344Z,2.37
2023-05-16T08:33:15.220Z,2.55
2023-05-16T08:35:45.101Z,2.40
2023-05-16T08:38:12.361Z,2.30
2023-05-16T08:40:40.149Z,2.83
2023-05-16T08:43:09.152Z,2.28
2023-05-16T08:45:35.823Z,2.53
2023-05-16T08:48:02.575Z,2.63
2023-05-16T08:50:32.841Z,2.58
2023-05-16T08:53:06.631Z,2.55
2023-05-16T08:55:33.498Z,2.78
2023-05-16T08:58:04.766Z,3.20
2023-05-16T09:00:31.692Z,2.85
2023-05-16T09:02:58.909Z,2.60
2023-05-16T09:05:25.990Z,2.67
2023-05-16T09:07:52.726Z,2.38
2023-05-16T09:10:19.547Z,2.47
2023-05-16T09:12:46.163Z,2.67
2023-05-16T09:15:14.729Z,2.53
2023-05-16T09:17:49.510Z,3.17
2023-05-16T09:20:17.399Z,2.63
2023-05-16T09:22:50.875Z,2.58
2023-05-16T09:25:28.511Z,2.70
2023-05-16T09:27:58.490Z,2.25
2023-05-16T09:30:32.115Z,2.70
2023-05-16T09:32:58.769Z,2.80
2023-05-16T09:38:04.386Z,2.80
2023-05-16T09:40:31.123Z,2.92
2023-05-16T09:43:04.843Z,3.03
2023-05-16T09:45:35.098Z,2.83
2023-05-16T09:48:05.942Z,2.72
2023-05-16T09:50:36.240Z,2.67
2023-05-16T09:53:04.012Z,2.63
2023-05-16T09:55:31.112Z,3.13
2023-05-16T09:57:58.053Z,3.67
2023-05-16T10:00:30.998Z,3.00
2023-05-16T10:02:58.268Z,3.72
2023-05-16T10:05:27.016Z,3.45
2023-05-16T10:07:58.526Z,3.15
2023-05-16T10:10:25.412Z,4.28
2023-05-16T10:12:53.204Z,3.83
2023-05-16T10:15:21.151Z,3.90
2023-05-16T10:17:51.863Z,3.67
2023-05-16T10:20:19.542Z,4.20
2023-05-16T10:22:47.289Z,4.40
2023-05-16T10:25:28.686Z,3.92
2023-05-16T10:27:55.751Z,3.70
2023-05-16T10:30:22.416Z,4.28
2023-05-16T10:32:50.376Z,3.90
2023-05-16T10:35:17.026Z,3.30
2023-05-16T10:37:49.618Z,3.63
2023-05-16T10:40:16.560Z,3.38
2023-05-16T10:43:05.636Z,3.40
2023-05-16T10:45:32.518Z,3.50
2023-05-16T10:48:00.462Z,3.28
2023-05-16T10:50:33.082Z,3.65
2023-05-16T10:53:18.530Z,3.60
2023-05-16T10:56:05.149Z,3.20
2023-05-16T10:58:31.870Z,3.20
2023-05-16T11:01:20.940Z,3.30
2023-05-16T11:04:02.877Z,3.45
2023-05-16T11:06:29.566Z,3.28
2023-05-16T11:09:05.269Z,3.35
2023-05-16T11:11:49.097Z,3.63
2023-05-16T11:14:29.361Z,3.95
2023-05-16T11:17:03.166Z,3.25
2023-05-16T11:19:29.956Z,3.45
2023-05-16T11:22:05.463Z,3.92
2023-05-16T11:24:33.021Z,3.95
2023-05-16T11:27:00.366Z,2.90
2023-05-16T11:29:34.019Z,3.40
2023-05-16T11:32:01.264Z,2.78
2023-05-16T11:34:28.433Z,3.22
2023-05-16T11:36:58.033Z,3.25
2023-05-16T11:39:26.347Z,2.70
2023-05-16T11:42:03.968Z,3.13
2023-05-16T11:44:32.385Z,3.30
2023-05-16T11:47:00.570Z,2.65
2023-05-16T11:49:29.244Z,2.83
2023-05-16T11:52:02.916Z,2.92
2023-05-16T11:54:29.536Z,2.85
2023-05-16T11:57:05.084Z,4.13
2023-05-16T11:59:33.531Z,3.85
2023-05-16T12:02:04.572Z,3.30
2023-05-16T12:04:31.391Z,3.50
2023-05-16T12:07:01.615Z,5.82
2023-05-16T12:09:28.264Z,3.38
2023-05-16T12:11:55.090Z,4.10
2023-05-16T12:14:26.282Z,3.95
2023-05-16T12:16:54.053Z,4.90
2023-05-16T12:19:21.342Z,3.17
2023-05-16T12:21:48.091Z,3.60
2023-05-16T12:24:18.208Z,3.45
2023-05-16T12:26:48.008Z,3.63
2023-05-16T12:29:14.663Z,2.40
2023-05-16T12:31:41.492Z,2.50
2023-05-16T12:34:21.079Z,2.33
2023-05-16T12:36:52.759Z,2.47
2023-05-16T12:39:19.547Z,2.50
2023-05-16T12:41:46.458Z,2.05
2023-05-16T12:44:18.170Z,2.78
2023-05-16T12:46:45.433Z,1.95
2023-05-16T12:49:13.651Z,2.13
2023-05-16T12:51:40.573Z,2.20
2023-05-16T12:54:11.145Z,1.70
2023-05-16T12:56:38.916Z,2.05
2023-05-16T12:59:09.902Z,2.03
2023-05-16T13:01:38.469Z,1.77
2023-05-16T13:04:05.355Z,2.17
2023-05-16T13:06:44.931Z,2.20
2023-05-16T13:09:18.742Z,2.50
2023-05-16T13:11:47.950Z,2.08
2023-05-16T13:14:14.776Z,2.30
2023-05-16T13:16:45.590Z,2.20
2023-05-16T13:19:14.287Z,2.30
2023-05-16T13:21:41.063Z,2.00
2023-05-16T13:24:09.543Z,2.67
2023-05-16T13:26:36.161Z,2.58
2023-05-16T13:29:02.790Z,3.17
2023-05-16T13:31:29.464Z,2.67
2023-05-16T13:33:56.169Z,3.97
2023-05-16T13:36:22.756Z,3.75
2023-05-16T13:38:49.357Z,3.55
2023-05-16T13:41:15.999Z,3.20
2023-05-16T13:43:42.554Z,3.97
2023-05-16T13:46:09.263Z,3.92
2023-05-16T13:48:36.886Z,3.50
2023-05-16T13:51:03.696Z,4.00
2023-05-16T13:53:30.311Z,4.22
2023-05-16T13:55:57.238Z,4.03
2023-05-16T13:58:24.006Z,3.13
2023-05-16T14:00:52.335Z,3.47
2023-05-16T14:03:28.998Z,4.25
2023-05-16T14:05:58.391Z,3.30
2023-05-16T14:08:26.371Z,4.05
2023-05-16T14:10:54.329Z,3.47
2023-05-16T14:13:30.141Z,3.33
2023-05-16T14:16:04.196Z,3.40
2023-05-16T14:18:39.490Z,2.70
2023-05-16T14:21:09.634Z,2.80
2023-05-16T14:23:48.057Z,1.88
2023-05-16T14:26:16.068Z,1.70
2023-05-16T14:28:44.127Z,2.45
2023-05-16T14:31:10.798Z,1.95
2023-05-16T14:33:37.525Z,1.70
2023-05-16T14:36:06.466Z,1.70
2023-05-16T14:38:35.037Z,1.75
2023-05-16T14:41:01.708Z,2.00
2023-05-16T14:43:28.260Z,1.42
2023-05-16T14:45:54.976Z,1.75
2023-05-16T14:48:23.540Z,1.80
2023-05-16T14:50:50.191Z,1.80
2023-05-16T14:53:20.326Z,1.92
2023-05-16T14:55:51.010Z,1.67
2023-05-16T14:58:21.162Z,1.60
2023-05-16T15:00:51.988Z,1.30
2023-05-16T15:03:24.166Z,1.60
2023-05-16T15:06:01.970Z,1.63
2023-05-16T15:08:32.182Z,1.33
2023-05-16T15:10:59.717Z,1.63
2023-05-16T15:13:26.299Z,1.48
2023-05-16T15:15:53.063Z,1.90
2023-05-16T15:18:21.103Z,1.75
2023-05-16T15:20:50.067Z,1.73
2023-05-16T15:23:20.325Z,2.08
2023-05-16T15:25:52.294Z,2.03
2023-05-16T15:28:20.947Z,2.17
2023-05-16T15:30:51.805Z,2.28
2023-05-16T15:33:22.795Z,2.00
2023-05-16T15:35:49.705Z,1.80
2023-05-16T15:38:17.178Z,2.05
2023-05-16T15:40:43.923Z,2.30
2023-05-16T15:43:14.937Z,2.35
2023-05-16T15:45:44.097Z,1.80
2023-05-16T15:48:12.489Z,1.77
2023-05-16T15:50:39.182Z,1.67
2023-05-16T15:53:05.893Z,1.92
2023-05-16T15:55:34.934Z,1.80
2023-05-16T15:58:01.527Z,1.50
2023-05-16T16:00:28.167Z,1.98
2023-05-16T16:02:54.985Z,1.95
2023-05-16T16:05:23.809Z,1.67
2023-05-16T16:07:53.685Z,2.00
2023-05-16T16:10:21.998Z,1.80
2023-05-16T16:13:09.363Z,1.67
2023-05-16T16:15:36.519Z,1.88
2023-05-16T16:18:07.214Z,1.50
2023-05-16T16:20:46.396Z,1.80
2023-05-16T16:23:13.008Z,3.45
2023-05-16T16:25:40.119Z,1.33
2023-05-16T16:28:07.149Z,1.60
2023-05-16T16:30:34.144Z,1.30
2023-05-16T16:33:00.828Z,1.45
2023-05-16T16:35:28.062Z,1.65
2023-05-16T16:40:29.283Z,1.80
2023-05-16T16:42:56.479Z,1.33
2023-05-16T16:45:23.104Z,1.25
2023-05-16T16:47:50.028Z,1.25
2023-05-16T16:50:19.669Z,1.65
2023-05-16T16:52:46.736Z,1.65
2023-05-16T16:55:44.393Z,1.63
2023-05-16T16:58:14.378Z,1.25
2023-05-16T17:00:41.204Z,1.40
2023-05-16T17:03:08.552Z,1.40
2023-05-16T17:05:35.664Z,1.33
2023-05-16T17:08:04.490Z,1.40
2023-05-16T17:10:34.647Z,1.83
2023-05-16T17:13:02.647Z,1.50
2023-05-16T17:15:33.572Z,1.30
2023-05-16T17:18:05.598Z,1.80
2023-05-16T17:20:37.648Z,1.65
2023-05-16T17:25:44.448Z,1.23
2023-05-16T17:28:11.550Z,1.75
2023-05-16T17:30:38.148Z,2.20
2023-05-16T17:33:06.230Z,2.40
2023-05-16T17:35:36.908Z,4.00
2023-05-16T17:38:25.494Z,2.30
2023-05-16T17:40:52.708Z,1.70
2023-05-16T17:43:19.484Z,2.17
2023-05-16T17:45:46.051Z,1.48
2023-05-16T17:48:13.280Z,1.67
2023-05-16T17:50:45.730Z,1.63
2023-05-16T17:53:12.536Z,1.23
2023-05-16T17:55:39.207Z,1.40
2023-05-16T17:58:08.721Z,1.20
2023-05-16T18:00:35.746Z,1.98
2023-05-16T18:03:04.427Z,1.55
2023-05-16T18:05:31.320Z,1.75
2023-05-16T18:08:02.760Z,2.35
2023-05-16T18:10:33.962Z,2.38
2023-05-16T18:13:10.579Z,1.80
2023-05-16T18:15:39.177Z,1.70
2023-05-16T18:18:09.134Z,1.98
2023-05-16T18:20:35.861Z,1.38
2023-05-16T18:23:16.525Z,1.45
2023-05-16T18:25:43.448Z,1.50
2023-05-16T18:28:10.938Z,2.47
2023-05-16T18:30:38.825Z,2.10
2023-05-16T18:33:05.512Z,1.70
2023-05-16T18:35:33.539Z,2.42
2023-05-16T18:38:02.088Z,2.40
2023-05-16T18:40:28.769Z,2.45
2023-05-16T18:42:58.911Z,2.35
2023-05-16T18:45:25.864Z,2.20
2023-05-16T18:47:57.721Z,2.10
2023-05-16T18:50:36.615Z,2.00
2023-05-16T18:53:03.327Z,1.58
2023-05-16T18:55:30.181Z,1.73
2023-05-16T18:58:05.417Z,1.70
2023-05-16T19:00:32.440Z,1.70
2023-05-16T19:02:59.082Z,1.85
2023-05-16T19:05:26.219Z,1.80
2023-05-16T19:07:54.241Z,1.55
2023-05-16T19:10:21.188Z,1.85
2023-05-16T19:12:50.904Z,1.65
2023-05-16T19:15:17.481Z,1.67
2023-05-16T19:17:44.187Z,1.65
2023-05-16T19:20:14.089Z,2.08
2023-05-16T19:22:43.029Z,1.75
2023-05-16T19:25:11.090Z,2.08
2023-05-16T19:27:39.064Z,2.10
2023-05-16T19:30:06.252Z,2.10
2023-05-16T19:32:48.917Z,2.00
2023-05-16T19:35:30.083Z,1.90
2023-05-16T19:37:59.906Z,1.90
2023-05-16T19:40:26.627Z,1.95
2023-05-16T19:43:01.591Z,1.73
2023-05-16T19:45:28.385Z,1.77
2023-05-16T19:47:55.602Z,2.20
2023-05-16T19:50:22.355Z,1.90
2023-05-16T19:53:01.713Z,1.77
2023-05-16T19:55:29.637Z,1.80
2023-05-16T19:57:57.309Z,1.67
2023-05-16T20:00:27.146Z,1.20
2023-05-16T20:03:16.448Z,1.40
2023-05-16T20:05:44.009Z,1.38
2023-05-16T20:08:10.712Z,1.27
2023-05-16T20:10:37.312Z,1.50
2023-05-16T20:13:09.965Z,1.83
2023-05-16T20:15:36.699Z,1.40
2023-05-16T20:18:03.459Z,1.65
2023-05-16T20:20:30.282Z,1.42
2023-05-16T20:23:04.667Z,1.40
2023-05-16T20:25:32.051Z,1.50
2023-05-16T20:28:00.059Z,1.30
2023-05-16T20:30:26.975Z,1.60
2023-05-16T20:32:59.384Z,1.60
2023-05-16T20:35:29.604Z,1.30
2023-05-16T20:37:59.371Z,1.40
2023-05-16T20:40:25.921Z,1.88
2023-05-16T20:42:53.487Z,1.38
2023-05-16T20:45:20.066Z,1.30
2023-05-16T20:47:49.161Z,1.15
2023-05-16T20:50:15.826Z,1.40
2023-05-16T20:52:42.571Z,1.40
2023-05-16T20:55:15.560Z,1.40
2023-05-16T20:57:46.144Z,1.67
2023-05-16T21:00:13.327Z,1.67
2023-05-16T21:02:39.901Z,1.50
2023-05-16T21:05:24.261Z,1.50
2023-05-16T21:07:52.167Z,1.10
2023-05-16T21:10:18.740Z,1.20
2023-05-16T21:12:45.316Z,1.20
2023-05-16T21:15:11.932Z,1.20
2023-05-16T21:17:38.551Z,1.30
2023-05-16T21:20:05.621Z,1.30
2023-05-16T21:22:35.556Z,1.35
2023-05-16T21:25:02.149Z,1.85
2023-05-16T21:27:32.457Z,1.70
2023-05-16T21:29:59.002Z,1.60
2023-05-16T21:32:27.533Z,1.50
2023-05-16T21:34:54.165Z,1.33
2023-05-16T21:37:20.794Z,1.35
2023-05-16T21:39:50.235Z,1.52
2023-05-16T21:42:18.725Z,1.50
2023-05-16T21:44:45.312Z,1.52
2023-05-16T21:47:13.188Z,1.65
2023-05-16T21:49:39.741Z,1.48
2023-05-16T21:52:07.562Z,1.27
2023-05-16T21:54:34.481Z,1.30
2023-05-16T21:57:01.032Z,1.60
2023-05-16T21:59:27.549Z,1.20
2023-05-16T22:01:54.143Z,1.30
2023-05-16T22:04:20.899Z,1.33
2023-05-16T22:06:47.602Z,1.20
2023-05-16T22:09:14.205Z,1.30
2023-05-16T22:11:40.801Z,1.65
2023-05-16T22:14:07.422Z,1.58
2023-05-16T22:16:34.007Z,1.80
2023-05-16T22:19:06.644Z,1.55
2023-05-16T22:21:33.304Z,1.58
2023-05-16T22:23:59.929Z,1.55
2023-05-16T22:26:26.497Z,1.67
2023-05-16T22:28:53.088Z,1.50
2023-05-16T22:31:23.579Z,1.80
2023-05-16T22:33:50.252Z,1.40
2023-05-16T22:36:18.074Z,1.92
2023-05-16T22:38:45.508Z,1.80
2023-05-16T22:41:12.076Z,1.90
2023-05-16T22:43:38.688Z,1.95
2023-05-16T22:46:05.437Z,1.90
2023-05-16T22:48:32.092Z,2.00
2023-05-16T22:50:58.701Z,1.60
2023-05-16T22:53:25.627Z,1.90
2023-05-16T22:55:52.189Z,1.70
2023-05-16T22:58:18.859Z,2.22
2023-05-16T23:00:45.552Z,1.67
2023-05-16T23:03:14.484Z,1.63
2023-05-16T23:05:41.130Z,1.88
2023-05-16T23:08:07.736Z,1.67
2023-05-16T23:10:35.886Z,2.40
2023-05-16T23:13:02.512Z,1.67
2023-05-16T23:15:29.341Z,1.80
2023-05-16T23:18:01.397Z,1.77
2023-05-16T23:22:54.545Z,1.67
2023-05-16T23:25:21.195Z,1.90
2023-05-16T23:27:47.825Z,1.88
2023-05-16T23:30:17.634Z,2.00
2023-05-16T23:32:45.629Z,1.67
2023-05-16T23:35:15.856Z,2.20
2023-05-16T23:37:42.439Z,2.08
2023-05-16T23:40:09.534Z,1.90
2023-05-16T23:42:36.209Z,2.20
2023-05-16T23:45:03.283Z,2.30
2023-05-16T23:47:29.943Z,2.20
2023-05-16T23:49:56.661Z,2.40
2023-05-16T23:52:23.188Z,3.05
2023-05-16T23:54:49.780Z,2.40
2023-05-16T23:57:16.358Z,2.80
2023-05-16T23:59:42.979Z,3.97
